Terminal Aerodrome Forecast
Issued by NWS

Home | Current Version | Previous Version | Text Only | Print | Product List | Glossary On
Versions: 1 2 3 4 5 6 7 8 9 10 11 12 13 14 15 16 17 18 19 20
594
FTUS44 KSJT 171729
TAFJCT
TAF
KJCT 171729Z 1718/1818 34006KT P6SM OVC015
     FM171900 30006KT P6SM SCT050
     FM172300 03006KT P6SM SCT250
     FM180700 08004KT P6SM OVC025
     FM181200 10006KT P6SM -DZ OVC015=

USA.gov is the U.S. government's official web portal to all federal, state and local government web resources and services.